Time;durP1;ratioP1;P1;durP2;ratioP2;P2;SDS_P1;SDS_P2;PMS_P1;PMS_P2;Temp;Humidity;BMP_temperature;BMP_pressure;BME280_temperature;BME280_humidity;BME280_pressure;Samples;Min_cycle;Max_cycle;Signal;HPM_P1;HPM_P2
2023/07/04 00:01:11;;;;;;;3.28;2.97;;;;;;;;;;5000973;28;20048;-72
2023/07/04 00:03:39;;;;;;;4.93;2.90;;;;;;;;;;5003498;28;20038;-72
2023/07/04 00:06:06;;;;;;;3.40;3.10;;;;;;;;;;5003472;28;20642;-72
2023/07/04 00:08:36;;;;;;;3.08;2.88;;;;;;;;;;5003505;28;20087;-72
2023/07/04 00:11:06;;;;;;;3.38;3.08;;;;;;;;;;5002887;28;20117;-72
2023/07/04 00:13:33;;;;;;;3.13;2.90;;;;;;;;;;5002958;28;20033;-72
2023/07/04 00:15:59;;;;;;;3.42;3.00;;;;;;;;;;5004555;28;20040;-72
2023/07/04 00:18:27;;;;;;;3.55;3.25;;;;;;;;;;5002803;28;20034;-72
2023/07/04 00:20:55;;;;;;;3.83;3.40;;;;;;;;;;5006375;28;20061;-72
2023/07/04 00:23:29;;;;;;;4.25;3.20;;;;;;;;;;5003456;28;20502;-72
2023/07/04 00:25:55;;;;;;;3.47;3.17;;;;;;;;;;5006392;28;20129;-72
2023/07/04 00:28:23;;;;;;;3.95;2.88;;;;;;;;;;5013022;28;20026;-72
2023/07/04 00:30:54;;;;;;;3.55;3.22;;;;;;;;;;5004498;28;20042;-72
2023/07/04 00:33:21;;;;;;;3.85;3.22;;;;;;;;;;5008893;28;20039;-72
2023/07/04 00:35:47;;;;;;;3.28;3.00;;;;;;;;;;5004053;28;20038;-72
2023/07/04 00:38:13;;;;;;;4.53;3.22;;;;;;;;;;5028292;28;20197;-72
2023/07/04 00:40:39;;;;;;;3.25;3.05;;;;;;;;;;5005712;28;20441;-72
2023/07/04 00:43:10;;;;;;;4.93;3.38;;;;;;;;;;5010015;28;20481;-72
2023/07/04 00:45:42;;;;;;;3.13;2.92;;;;;;;;;;5010716;28;20428;-72
2023/07/04 00:48:11;;;;;;;3.80;3.33;;;;;;;;;;5002346;28;20025;-72
2023/07/04 00:50:43;;;;;;;3.35;3.08;;;;;;;;;;5023863;28;20038;-72
2023/07/04 00:53:11;;;;;;;6.13;3.78;;;;;;;;;;5020800;28;20128;-72
2023/07/04 00:55:39;;;;;;;4.32;3.35;;;;;;;;;;5007361;28;20041;-73
2023/07/04 00:58:05;;;;;;;3.30;3.10;;;;;;;;;;5022634;28;20041;-72
2023/07/04 01:00:32;;;;;;;4.13;3.30;;;;;;;;;;5007587;28;20037;-72
2023/07/04 01:03:13;;;;;;;4.50;3.20;;;;;;;;;;5020074;28;20638;-72
2023/07/04 01:06:05;;;;;;;3.80;3.42;;;;;;;;;;5022525;28;20041;-72
2023/07/04 01:08:36;;;;;;;3.40;3.10;;;;;;;;;;4999889;28;20049;-72
2023/07/04 01:11:07;;;;;;;3.70;3.38;;;;;;;;;;5028600;28;20069;-72
2023/07/04 01:13:38;;;;;;;3.88;3.53;;;;;;;;;;5021343;28;20501;-72
2023/07/04 01:16:11;;;;;;;4.25;3.10;;;;;;;;;;5010636;28;20473;-72
2023/07/04 01:18:39;;;;;;;4.25;3.20;;;;;;;;;;4997579;28;20441;-72
2023/07/04 01:21:07;;;;;;;5.60;3.50;;;;;;;;;;5030650;28;20048;-72
2023/07/04 01:23:54;;;;;;;4.10;3.50;;;;;;;;;;5020234;28;20385;-73
2023/07/04 01:26:35;;;;;;;3.42;3.13;;;;;;;;;;5005734;28;20096;-72
2023/07/04 01:29:03;;;;;;;3.90;2.97;;;;;;;;;;5027176;28;20066;-72
2023/07/04 01:31:30;;;;;;;3.35;3.15;;;;;;;;;;5010842;28;20034;-72
2023/07/04 01:33:57;;;;;;;4.68;3.08;;;;;;;;;;5008086;28;20037;-72
2023/07/04 01:36:27;;;;;;;4.60;3.28;;;;;;;;;;5012405;28;20068;-72
2023/07/04 01:38:53;;;;;;;3.90;3.60;;;;;;;;;;5017429;28;20049;-73
2023/07/04 01:41:20;;;;;;;5.72;3.45;;;;;;;;;;5019418;28;20476;-72
2023/07/04 01:43:50;;;;;;;3.50;3.20;;;;;;;;;;5028673;28;20824;-72
2023/07/04 01:46:17;;;;;;;4.93;3.13;;;;;;;;;;5004241;28;20041;-72
2023/07/04 01:48:43;;;;;;;3.65;3.22;;;;;;;;;;5013841;28;20034;-72
2023/07/04 01:51:08;;;;;;;4.22;3.20;;;;;;;;;;5025667;28;20091;-72
2023/07/04 01:53:34;;;;;;;3.85;3.40;;;;;;;;;;5019719;28;20029;-72
2023/07/04 01:56:00;;;;;;;3.85;3.45;;;;;;;;;;5010029;28;20150;-72
2023/07/04 01:58:26;;;;;;;3.95;3.55;;;;;;;;;;5012624;28;20042;-73
2023/07/04 02:00:51;;;;;;;5.68;3.55;;;;;;;;;;5025688;28;20049;-72
2023/07/04 02:03:17;;;;;;;4.53;3.30;;;;;;;;;;5005943;28;20057;-72
2023/07/04 02:05:42;;;;;;;3.75;2.95;;;;;;;;;;5009394;28;20628;-72
2023/07/04 02:08:09;;;;;;;4.25;3.30;;;;;;;;;;5015177;28;20114;-72
2023/07/04 02:10:35;;;;;;;3.83;3.30;;;;;;;;;;4994798;28;20034;-72
2023/07/04 02:13:01;;;;;;;5.85;3.47;;;;;;;;;;5012201;28;20061;-73
2023/07/04 02:15:27;;;;;;;5.00;3.80;;;;;;;;;;5009641;28;20025;-73
2023/07/04 02:17:52;;;;;;;3.60;3.30;;;;;;;;;;5005026;28;20038;-73
2023/07/04 02:20:19;;;;;;;9.98;3.20;;;;;;;;;;5012800;28;20525;-73
2023/07/04 02:22:45;;;;;;;4.53;3.28;;;;;;;;;;5025179;28;20041;-73
2023/07/04 02:25:10;;;;;;;3.70;3.38;;;;;;;;;;5012901;28;20042;-73
2023/07/04 02:27:36;;;;;;;4.60;3.10;;;;;;;;;;5002602;28;20044;-73
2023/07/04 02:30:03;;;;;;;3.35;3.05;;;;;;;;;;5009778;28;20505;-73
2023/07/04 02:32:29;;;;;;;5.47;3.38;;;;;;;;;;5023713;28;20029;-73
2023/07/04 02:34:55;;;;;;;4.90;3.50;;;;;;;;;;5024913;28;20048;-73
2023/07/04 02:37:20;;;;;;;3.40;3.10;;;;;;;;;;5010038;28;20029;-73
2023/07/04 02:39:46;;;;;;;3.83;3.42;;;;;;;;;;5001398;28;20132;-73
2023/07/04 02:42:12;;;;;;;3.75;3.42;;;;;;;;;;5023387;28;20129;-72
2023/07/04 02:44:38;;;;;;;4.00;3.22;;;;;;;;;;5030324;28;20717;-72
2023/07/04 02:47:05;;;;;;;3.25;3.05;;;;;;;;;;5028247;28;20033;-72
2023/07/04 02:49:31;;;;;;;3.85;3.25;;;;;;;;;;5024116;28;20443;-73
2023/07/04 02:51:58;;;;;;;3.85;3.40;;;;;;;;;;5023604;28;20099;-73
2023/07/04 02:54:23;;;;;;;6.35;3.20;;;;;;;;;;5016860;28;20034;-73
2023/07/04 02:56:50;;;;;;;3.70;3.28;;;;;;;;;;5029254;28;20131;-72
2023/07/04 02:59:17;;;;;;;7.00;3.65;;;;;;;;;;5013859;28;20656;-72
2023/07/04 03:01:44;;;;;;;3.80;3.20;;;;;;;;;;5002102;28;20118;-73
2023/07/04 03:04:10;;;;;;;5.18;3.55;;;;;;;;;;5023692;28;20557;-73
2023/07/04 03:06:36;;;;;;;4.55;3.50;;;;;;;;;;5005945;28;20116;-73
2023/07/04 03:09:02;;;;;;;3.80;3.25;;;;;;;;;;5008744;28;20670;-73
2023/07/04 03:11:28;;;;;;;3.88;3.10;;;;;;;;;;5021793;28;20512;-73
2023/07/04 03:13:56;;;;;;;3.22;3.03;;;;;;;;;;4990493;28;20050;-73
2023/07/04 03:16:22;;;;;;;3.25;2.85;;;;;;;;;;5016473;28;20069;-73
2023/07/04 03:18:48;;;;;;;6.70;3.47;;;;;;;;;;5019122;28;20066;-73
2023/07/04 03:21:14;;;;;;;6.28;3.20;;;;;;;;;;5022070;28;20036;-73
2023/07/04 03:23:40;;;;;;;4.97;3.17;;;;;;;;;;5008540;28;20038;-73
2023/07/04 03:26:08;;;;;;;7.30;4.28;;;;;;;;;;4987079;28;20931;-72
2023/07/04 03:28:33;;;;;;;4.05;3.10;;;;;;;;;;5002375;28;20041;-73
2023/07/04 03:31:00;;;;;;;3.63;3.30;;;;;;;;;;5031389;28;20069;-73
2023/07/04 03:33:26;;;;;;;3.53;3.20;;;;;;;;;;5015323;28;20093;-73
2023/07/04 03:35:51;;;;;;;3.97;3.58;;;;;;;;;;5007717;28;20033;-72
2023/07/04 03:38:17;;;;;;;6.75;3.40;;;;;;;;;;5011725;28;20034;-72
2023/07/04 03:40:43;;;;;;;3.30;3.08;;;;;;;;;;5012254;28;20041;-72
2023/07/04 03:43:08;;;;;;;3.83;3.40;;;;;;;;;;4997659;28;20124;-73
2023/07/04 03:45:34;;;;;;;3.58;3.30;;;;;;;;;;5004315;28;20090;-72
2023/07/04 03:48:00;;;;;;;3.65;3.35;;;;;;;;;;4996029;28;20084;-72
2023/07/04 03:50:25;;;;;;;4.28;3.47;;;;;;;;;;5000187;28;20108;-72
2023/07/04 03:52:51;;;;;;;4.82;3.60;;;;;;;;;;5015451;28;20193;-72
2023/07/04 03:55:16;;;;;;;4.20;3.25;;;;;;;;;;5008046;28;20116;-72
2023/07/04 03:57:42;;;;;;;4.30;3.70;;;;;;;;;;5007320;28;20123;-72
2023/07/04 04:00:11;;;;;;;4.30;3.42;;;;;;;;;;5001007;28;20042;-72
2023/07/04 04:02:56;;;;;;;5.53;3.60;;;;;;;;;;5010539;28;20049;-72
2023/07/04 04:05:21;;;;;;;4.40;4.00;;;;;;;;;;5006841;28;20038;-72
2023/07/04 04:07:50;;;;;;;4.10;3.70;;;;;;;;;;5002047;28;20245;-72
2023/07/04 04:10:17;;;;;;;3.90;3.60;;;;;;;;;;5007246;28;20044;-73
2023/07/04 04:12:43;;;;;;;3.72;3.42;;;;;;;;;;5006369;28;20765;-72
2023/07/04 04:15:09;;;;;;;3.90;3.60;;;;;;;;;;5014619;28;20501;-72
2023/07/04 04:17:35;;;;;;;3.85;3.55;;;;;;;;;;5010494;28;20052;-72
2023/07/04 04:20:04;;;;;;;4.15;3.70;;;;;;;;;;5006832;28;20531;-72
2023/07/04 04:22:30;;;;;;;4.25;3.90;;;;;;;;;;5003312;28;20761;-72
2023/07/04 04:24:56;;;;;;;3.92;3.53;;;;;;;;;;5006568;28;20037;-72
2023/07/04 04:27:26;;;;;;;5.00;3.75;;;;;;;;;;5011801;28;20746;-72
2023/07/04 04:29:53;;;;;;;4.13;3.72;;;;;;;;;;5010312;28;20130;-72
2023/07/04 04:32:19;;;;;;;3.83;3.53;;;;;;;;;;5014895;28;20112;-72
2023/07/04 04:34:44;;;;;;;3.75;3.45;;;;;;;;;;4997817;28;20181;-72
2023/07/04 04:37:10;;;;;;;4.10;3.70;;;;;;;;;;5002761;28;20033;-72
2023/07/04 04:39:36;;;;;;;3.92;3.50;;;;;;;;;;5009505;28;20033;-72
2023/07/04 04:42:01;;;;;;;5.57;3.28;;;;;;;;;;5010479;28;20050;-72
2023/07/04 04:44:27;;;;;;;3.50;3.20;;;;;;;;;;5005136;28;20091;-72
2023/07/04 04:46:53;;;;;;;4.97;3.40;;;;;;;;;;5009072;28;20121;-73
2023/07/04 04:49:18;;;;;;;3.67;3.38;;;;;;;;;;5003854;28;20498;-72
2023/07/04 04:51:44;;;;;;;3.45;3.13;;;;;;;;;;5008833;28;20080;-72
2023/07/04 04:54:14;;;;;;;4.10;3.28;;;;;;;;;;5006330;28;20029;-72
2023/07/04 04:56:40;;;;;;;3.75;3.30;;;;;;;;;;5003403;28;20042;-73
2023/07/04 04:59:07;;;;;;;6.40;3.60;;;;;;;;;;5013978;28;20393;-72
2023/07/04 05:01:36;;;;;;;4.43;3.40;;;;;;;;;;5008194;28;20033;-72
2023/07/04 05:04:02;;;;;;;;;;;;;;;;;;5009726;28;20096;-72
2023/07/04 05:06:27;;;;;;;3.47;3.22;;;;;;;;;;5010602;28;19920;-73
2023/07/04 05:08:53;;;;;;;3.63;3.15;;;;;;;;;;4997615;28;20042;-73
2023/07/04 05:11:20;;;;;;;3.35;3.05;;;;;;;;;;4997157;28;20068;-73
2023/07/04 05:13:46;;;;;;;4.18;3.45;;;;;;;;;;5010455;28;20038;-73
2023/07/04 05:16:14;;;;;;;4.22;3.25;;;;;;;;;;5007879;28;20488;-72
2023/07/04 05:18:42;;;;;;;3.42;3.22;;;;;;;;;;5007630;28;20039;-72
2023/07/04 05:21:10;;;;;;;3.13;2.92;;;;;;;;;;5011342;28;20055;-72
2023/07/04 05:23:38;;;;;;;3.65;3.35;;;;;;;;;;5006176;28;20067;-72
2023/07/04 05:26:12;;;;;;;3.00;2.80;;;;;;;;;;5010096;28;20198;-72
2023/07/04 05:28:39;;;;;;;4.60;3.20;;;;;;;;;;5006891;28;20030;-73
2023/07/04 05:31:07;;;;;;;3.35;2.90;;;;;;;;;;5006429;28;20517;-76
2023/07/04 05:33:34;;;;;;;3.20;2.92;;;;;;;;;;5002189;28;20030;-73
2023/07/04 05:36:15;;;;;;;3.03;2.80;;;;;;;;;;5017276;28;20077;-71
2023/07/04 05:38:42;;;;;;;3.13;2.80;;;;;;;;;;5003286;28;20291;-71
2023/07/04 05:41:09;;;;;;;3.53;2.80;;;;;;;;;;5013173;28;20129;-70
2023/07/04 05:43:36;;;;;;;2.90;2.70;;;;;;;;;;5008981;28;20555;-70
2023/07/04 05:46:01;;;;;;;3.78;3.00;;;;;;;;;;5005782;28;20042;-70
2023/07/04 05:48:27;;;;;;;3.22;3.00;;;;;;;;;;5011835;28;20040;-70
2023/07/04 05:50:57;;;;;;;6.28;3.00;;;;;;;;;;5001150;28;20050;-70
2023/07/04 05:53:28;;;;;;;3.55;2.95;;;;;;;;;;5015759;28;20091;-70
2023/07/04 05:56:14;;;;;;;3.67;3.00;;;;;;;;;;4999831;28;20514;-70
2023/07/04 05:58:42;;;;;;;3.25;2.63;;;;;;;;;;5003886;28;20847;-70
2023/07/04 06:01:09;;;;;;;3.65;2.90;;;;;;;;;;5021198;28;20037;-71
2023/07/04 06:03:35;;;;;;;3.47;2.90;;;;;;;;;;5017865;28;20029;-71
2023/07/04 06:06:06;;;;;;;3.75;3.03;;;;;;;;;;5028224;28;20048;-70
2023/07/04 06:08:33;;;;;;;4.65;3.08;;;;;;;;;;5024777;28;20030;-70
2023/07/04 06:11:04;;;;;;;4.35;3.22;;;;;;;;;;5001632;28;20038;-70
2023/07/04 06:13:30;;;;;;;4.60;2.90;;;;;;;;;;5009710;28;21959;-70
2023/07/04 06:15:58;;;;;;;2.80;2.58;;;;;;;;;;5010406;28;20286;-71
2023/07/04 06:18:24;;;;;;;5.13;2.90;;;;;;;;;;5000944;28;20276;-71
2023/07/04 06:20:50;;;;;;;5.72;3.10;;;;;;;;;;5011157;28;20060;-71
2023/07/04 06:23:20;;;;;;;4.45;3.00;;;;;;;;;;5007740;28;20416;-71
2023/07/04 06:25:46;;;;;;;3.95;3.05;;;;;;;;;;5000564;28;20113;-71
2023/07/04 06:28:12;;;;;;;3.20;2.72;;;;;;;;;;5005288;28;20025;-71
2023/07/04 06:30:38;;;;;;;2.75;2.55;;;;;;;;;;4997992;28;20359;-71
2023/07/04 06:33:05;;;;;;;3.53;2.58;;;;;;;;;;5009382;28;20049;-71
2023/07/04 06:35:30;;;;;;;4.90;3.10;;;;;;;;;;5009131;28;20046;-71
2023/07/04 06:37:57;;;;;;;3.95;2.58;;;;;;;;;;5010225;28;20042;-71
2023/07/04 06:40:22;;;;;;;4.32;2.78;;;;;;;;;;5004585;28;20029;-71
2023/07/04 06:42:48;;;;;;;5.03;2.55;;;;;;;;;;5005073;28;20045;-71
2023/07/04 06:45:14;;;;;;;4.60;2.90;;;;;;;;;;4998018;28;20049;-71
2023/07/04 06:47:40;;;;;;;3.25;2.90;;;;;;;;;;4997906;28;20121;-71
2023/07/04 06:50:06;;;;;;;2.90;2.60;;;;;;;;;;4997862;28;20026;-72
2023/07/04 06:52:34;;;;;;;4.25;2.75;;;;;;;;;;4989291;28;20033;-71
2023/07/04 06:55:00;;;;;;;5.22;2.78;;;;;;;;;;5000650;28;20046;-71
2023/07/04 06:57:25;;;;;;;7.43;2.90;;;;;;;;;;4996313;28;20481;-71
2023/07/04 06:59:51;;;;;;;6.90;2.80;;;;;;;;;;4997393;28;20034;-71
2023/07/04 07:02:17;;;;;;;4.70;2.80;;;;;;;;;;5003959;28;20042;-71
2023/07/04 07:04:43;;;;;;;4.32;2.90;;;;;;;;;;4999757;28;20084;-71
2023/07/04 07:07:10;;;;;;;3.90;2.90;;;;;;;;;;5000097;28;20122;-71
2023/07/04 07:09:41;;;;;;;4.65;2.90;;;;;;;;;;5007232;28;20496;-71
2023/07/04 07:12:08;;;;;;;3.83;2.65;;;;;;;;;;5006513;28;20039;-71
2023/07/04 07:14:35;;;;;;;5.00;2.50;;;;;;;;;;5007166;28;20389;-71
2023/07/04 07:17:01;;;;;;;4.85;2.55;;;;;;;;;;5010585;28;20088;-71
2023/07/04 07:19:28;;;;;;;5.53;2.85;;;;;;;;;;5007355;28;20034;-71
2023/07/04 07:21:54;;;;;;;4.22;3.00;;;;;;;;;;5009304;28;20469;-71
2023/07/04 07:24:19;;;;;;;4.10;3.00;;;;;;;;;;5007319;28;20035;-71
2023/07/04 07:26:45;;;;;;;5.75;3.10;;;;;;;;;;5010498;28;20045;-71
2023/07/04 07:29:10;;;;;;;4.20;2.78;;;;;;;;;;5000981;28;20038;-71
2023/07/04 07:31:36;;;;;;;4.80;3.20;;;;;;;;;;5012736;28;20148;-71
2023/07/04 07:34:03;;;;;;;5.63;2.83;;;;;;;;;;5007948;28;20044;-71
2023/07/04 07:36:31;;;;;;;3.88;2.60;;;;;;;;;;5012003;28;20466;-71
2023/07/04 07:38:58;;;;;;;4.32;2.92;;;;;;;;;;5008673;28;20030;-71
2023/07/04 07:41:29;;;;;;;6.05;3.13;;;;;;;;;;5003512;28;20040;-71
2023/07/04 07:43:55;;;;;;;4.70;3.10;;;;;;;;;;5005101;28;20111;-71
2023/07/04 07:46:20;;;;;;;8.05;3.53;;;;;;;;;;5022096;28;20383;-71
2023/07/04 07:48:48;;;;;;;6.65;2.90;;;;;;;;;;5001378;28;20026;-71
2023/07/04 07:51:13;;;;;;;3.72;3.13;;;;;;;;;;5001251;28;20042;-71
2023/07/04 07:53:43;;;;;;;6.60;3.00;;;;;;;;;;5009198;28;20033;-71
2023/07/04 07:56:11;;;;;;;3.97;3.03;;;;;;;;;;5012685;28;20145;-71
2023/07/04 07:58:36;;;;;;;4.18;2.92;;;;;;;;;;4999980;28;20061;-71
2023/07/04 08:01:11;;;;;;;4.10;3.08;;;;;;;;;;5007434;28;20077;-71
2023/07/04 08:03:37;;;;;;;3.63;3.20;;;;;;;;;;5009524;28;20118;-71
2023/07/04 08:06:03;;;;;;;5.15;2.75;;;;;;;;;;5009794;28;20069;-71
2023/07/04 08:08:28;;;;;;;6.68;3.88;;;;;;;;;;5010992;28;20073;-71
2023/07/04 08:10:54;;;;;;;4.00;3.33;;;;;;;;;;5006977;28;20037;-71
2023/07/04 08:13:19;;;;;;;7.43;3.75;;;;;;;;;;5018950;28;20029;-71
2023/07/04 08:15:55;;;;;;;8.60;3.75;;;;;;;;;;5010048;28;20026;-71
2023/07/04 08:18:21;;;;;;;7.50;3.40;;;;;;;;;;5012649;28;20520;-71
2023/07/04 08:20:58;;;;;;;3.42;2.83;;;;;;;;;;5007043;28;20037;-71
2023/07/04 08:23:24;;;;;;;4.00;2.83;;;;;;;;;;5001627;28;20109;-71
2023/07/04 08:25:50;;;;;;;9.52;3.17;;;;;;;;;;5004945;28;20149;-71
2023/07/04 08:28:15;;;;;;;5.70;2.70;;;;;;;;;;5002857;28;20116;-72
2023/07/04 08:30:41;;;;;;;6.32;3.22;;;;;;;;;;4994938;28;20042;-71
2023/07/04 08:33:07;;;;;;;6.47;2.75;;;;;;;;;;5008384;28;20341;-71
2023/07/04 08:35:32;;;;;;;4.80;3.13;;;;;;;;;;5011425;28;20033;-71
2023/07/04 08:37:58;;;;;;;7.13;3.42;;;;;;;;;;4997024;28;20030;-71
2023/07/04 08:40:24;;;;;;;5.38;3.00;;;;;;;;;;5004571;28;20045;-71
2023/07/04 08:42:49;;;;;;;6.22;3.45;;;;;;;;;;5002580;28;20428;-71
2023/07/04 08:45:26;;;;;;;7.65;3.50;;;;;;;;;;5012219;28;20425;-71
2023/07/04 08:47:55;;;;;;;4.45;3.65;;;;;;;;;;5005544;28;20284;-72
2023/07/04 08:50:26;;;;;;;7.07;3.70;;;;;;;;;;5009658;28;20508;-72
2023/07/04 08:53:18;;;;;;;11.32;3.85;;;;;;;;;;5008955;28;20130;-71
2023/07/04 08:55:58;;;;;;;7.85;3.80;;;;;;;;;;5001084;28;20033;-71
2023/07/04 08:58:30;;;;;;;5.40;3.70;;;;;;;;;;5005001;28;20037;-71
2023/07/04 09:01:01;;;;;;;4.95;3.50;;;;;;;;;;5005057;28;20049;-71
2023/07/04 09:03:54;;;;;;;5.85;3.55;;;;;;;;;;4999455;28;20517;-71
2023/07/04 09:06:50;;;;;;;8.38;3.90;;;;;;;;;;5009093;28;20401;-71
2023/07/04 09:09:25;;;;;;;5.68;3.85;;;;;;;;;;4999326;28;20117;-73
2023/07/04 09:11:52;;;;;;;5.35;3.72;;;;;;;;;;5009780;28;20267;-71
2023/07/04 09:14:53;;;;;;;4.57;3.47;;;;;;;;;;5013156;28;20046;-71
2023/07/04 09:17:35;;;;;;;4.88;3.35;;;;;;;;;;4947712;28;20034;-71
2023/07/04 09:20:02;;;;;;;6.45;3.72;;;;;;;;;;4945980;28;20064;-72
2023/07/04 09:22:28;;;;;;;7.32;4.03;;;;;;;;;;4949667;28;20550;-72
2023/07/04 09:24:54;;;;;;;5.65;3.20;;;;;;;;;;4954442;28;20215;-71
2023/07/04 09:27:19;;;;;;;5.75;3.55;;;;;;;;;;4953468;28;20074;-71
2023/07/04 09:29:46;;;;;;;6.20;3.60;;;;;;;;;;4951373;28;20455;-71
2023/07/04 09:32:12;;;;;;;6.40;3.72;;;;;;;;;;4954540;28;20324;-71
2023/07/04 09:34:51;;;;;;;7.13;3.25;;;;;;;;;;4946770;28;20251;-71
2023/07/04 09:37:19;;;;;;;5.90;3.85;;;;;;;;;;4952158;28;20037;-71
2023/07/04 09:39:47;;;;;;;6.93;3.53;;;;;;;;;;4952974;28;20050;-72
2023/07/04 09:42:14;;;;;;;6.15;3.83;;;;;;;;;;4947594;28;20045;-72
2023/07/04 09:44:41;;;;;;;6.22;3.45;;;;;;;;;;4952711;28;20506;-72
2023/07/04 09:47:22;;;;;;;3.97;3.58;;;;;;;;;;4949198;28;20070;-72
2023/07/04 09:50:10;;;;;;;5.53;3.60;;;;;;;;;;4943469;28;20126;-72
2023/07/04 09:52:36;;;;;;;6.43;4.10;;;;;;;;;;5003506;28;20041;-72
2023/07/04 09:55:24;;;;;;;8.55;4.00;;;;;;;;;;5013126;28;20087;-72
2023/07/04 09:57:50;;;;;;;5.43;3.67;;;;;;;;;;5009532;28;20454;-72
2023/07/04 10:00:22;;;;;;;6.60;4.03;;;;;;;;;;5011696;28;20509;-71
2023/07/04 10:02:52;;;;;;;8.70;3.72;;;;;;;;;;5004272;28;20190;-71
2023/07/04 10:05:30;;;;;;;5.63;3.90;;;;;;;;;;4999863;28;20034;-71
2023/07/04 10:08:22;;;;;;;5.00;3.65;;;;;;;;;;5003559;28;20042;-71
2023/07/04 10:10:54;;;;;;;5.68;3.95;;;;;;;;;;5003241;28;20445;-71
2023/07/04 10:13:23;;;;;;;7.30;4.60;;;;;;;;;;5006054;28;20401;-71
2023/07/04 10:15:49;;;;;;;5.93;4.20;;;;;;;;;;5004369;28;20030;-71
2023/07/04 10:18:41;;;;;;;4.95;4.25;;;;;;;;;;5005722;28;20033;-72
2023/07/04 10:21:07;;;;;;;7.78;4.47;;;;;;;;;;5012933;28;20327;-72
2023/07/04 10:23:34;;;;;;;8.18;4.70;;;;;;;;;;5012884;28;20037;-73
2023/07/04 10:26:01;;;;;;;6.53;4.15;;;;;;;;;;5014663;28;20502;-72
2023/07/04 10:28:28;;;;;;;9.40;4.50;;;;;;;;;;5014884;28;20125;-73
2023/07/04 10:31:10;;;;;;;6.85;4.10;;;;;;;;;;5008824;28;20506;-72
2023/07/04 10:33:51;;;;;;;6.97;4.65;;;;;;;;;;5012550;28;20113;-73
2023/07/04 10:36:26;;;;;;;5.93;4.25;;;;;;;;;;5011081;28;20492;-72
2023/07/04 10:38:56;;;;;;;7.07;4.93;;;;;;;;;;5008842;28;20049;-72
2023/07/04 10:41:34;;;;;;;7.45;4.70;;;;;;;;;;5001389;28;20421;-72
2023/07/04 10:44:04;;;;;;;6.80;4.32;;;;;;;;;;5013462;28;20038;-72
2023/07/04 10:46:36;;;;;;;7.43;4.78;;;;;;;;;;5006849;28;20030;-72
2023/07/04 10:49:06;;;;;;;7.43;4.40;;;;;;;;;;5021207;28;20429;-72
2023/07/04 10:51:36;;;;;;;7.40;4.13;;;;;;;;;;5013376;28;20528;-72
2023/07/04 10:54:03;;;;;;;5.70;4.20;;;;;;;;;;5005141;28;20100;-72
2023/07/04 10:56:34;;;;;;;6.35;4.30;;;;;;;;;;5020442;28;20044;-72
2023/07/04 10:59:22;;;;;;;7.50;4.53;;;;;;;;;;5008729;28;20036;-72
2023/07/04 11:02:00;;;;;;;6.82;4.30;;;;;;;;;;5010767;28;20046;-72
2023/07/04 11:04:31;;;;;;;7.67;4.50;;;;;;;;;;5000046;28;20120;-72
2023/07/04 11:07:03;;;;;;;4.40;3.97;;;;;;;;;;5014476;28;20300;-72
2023/07/04 11:09:37;;;;;;;8.55;4.50;;;;;;;;;;5007097;28;20486;-72
2023/07/04 11:12:06;;;;;;;8.50;4.32;;;;;;;;;;5015874;28;20046;-72
2023/07/04 11:14:37;;;;;;;7.15;4.63;;;;;;;;;;5014574;28;20477;-72
2023/07/04 11:17:06;;;;;;;6.43;4.70;;;;;;;;;;5009228;28;20129;-72
2023/07/04 11:19:35;;;;;;;9.00;4.88;;;;;;;;;;5004243;28;20113;-72
2023/07/04 11:22:02;;;;;;;5.10;4.22;;;;;;;;;;5012861;28;20136;-72
2023/07/04 11:24:40;;;;;;;7.57;4.07;;;;;;;;;;5008134;28;20374;-72
2023/07/04 11:27:16;;;;;;;7.18;4.38;;;;;;;;;;5012807;28;20091;-77
2023/07/04 11:29:52;;;;;;;5.90;4.25;;;;;;;;;;5009086;28;20028;-72
2023/07/04 11:32:36;;;;;;;7.55;4.65;;;;;;;;;;5009460;28;20034;-72
2023/07/04 11:35:11;;;;;;;5.18;4.10;;;;;;;;;;5016585;28;20042;-72
2023/07/04 11:37:43;;;;;;;5.80;4.22;;;;;;;;;;5014352;28;20057;-72
2023/07/04 11:40:43;;;;;;;7.53;4.47;;;;;;;;;;5014707;28;20026;-72
2023/07/04 11:43:43;;;;;;;4.72;4.25;;;;;;;;;;5016065;28;20037;-72
2023/07/04 11:46:21;;;;;;;7.57;4.40;;;;;;;;;;4968158;28;20050;-72
2023/07/04 11:48:48;;;;;;;;;;;;;;;;;;4964133;28;20597;-72
2023/07/04 11:51:15;;;;;;;4.15;3.75;;;;;;;;;;4962577;28;19918;-72
2023/07/04 11:53:52;;;;;;;5.72;4.10;;;;;;;;;;4965255;28;20045;-72
2023/07/04 11:56:26;;;;;;;4.97;4.47;;;;;;;;;;4962837;28;20094;-73
2023/07/04 11:59:10;;;;;;;5.60;4.32;;;;;;;;;;4968523;28;20414;-72
2023/07/04 12:01:51;;;;;;;4.30;3.90;;;;;;;;;;4962841;28;20611;-72
2023/07/04 12:04:41;;;;;;;5.15;3.47;;;;;;;;;;4967725;28;20552;-72
2023/07/04 12:07:34;;;;;;;4.50;3.70;;;;;;;;;;4960612;28;20075;-72
2023/07/04 12:10:00;;;;;;;5.57;3.67;;;;;;;;;;4966219;28;20423;-72
2023/07/04 12:12:28;;;;;;;4.70;3.88;;;;;;;;;;4957964;28;20053;-72
2023/07/04 12:15:08;;;;;;;6.00;4.35;;;;;;;;;;4958171;28;20588;-73
2023/07/04 12:17:39;;;;;;;4.45;4.03;;;;;;;;;;4965850;28;20116;-73
2023/07/04 12:20:13;;;;;;;9.23;4.40;;;;;;;;;;4965566;28;20047;-73
2023/07/04 12:22:51;;;;;;;8.43;4.43;;;;;;;;;;4987838;28;20050;-73
2023/07/04 12:25:37;;;;;;;5.78;3.90;;;;;;;;;;5006201;28;20033;-73
2023/07/04 12:28:04;;;;;;;4.95;4.32;;;;;;;;;;5009031;28;20050;-73
2023/07/04 12:30:32;;;;;;;6.05;4.30;;;;;;;;;;5000251;28;21815;-73
2023/07/04 12:32:58;;;;;;;;;;;;;;;;;;5009722;28;20057;-73
2023/07/04 12:35:29;;;;;;;6.55;4.15;;;;;;;;;;5006834;28;19917;-73
2023/07/04 12:37:57;;;;;;;4.93;3.80;;;;;;;;;;5002322;28;20121;-73
2023/07/04 12:40:28;;;;;;;6.97;4.05;;;;;;;;;;5007275;28;20033;-73
2023/07/04 12:42:56;;;;;;;5.53;3.70;;;;;;;;;;5007752;28;20038;-72
2023/07/04 12:45:25;;;;;;;4.68;3.55;;;;;;;;;;4999066;28;20660;-72
2023/07/04 12:47:53;;;;;;;4.05;3.65;;;;;;;;;;4998388;28;20056;-73
2023/07/04 12:50:20;;;;;;;4.88;3.47;;;;;;;;;;5008149;28;20064;-73
2023/07/04 12:52:48;;;;;;;5.38;3.10;;;;;;;;;;5002713;28;20278;-73
2023/07/04 12:55:30;;;;;;;4.75;3.33;;;;;;;;;;5006145;28;20022;-73
2023/07/04 12:57:57;;;;;;;4.70;3.90;;;;;;;;;;5007969;28;20513;-73
2023/07/04 13:00:28;;;;;;;6.28;4.10;;;;;;;;;;5008206;28;20033;-73
2023/07/04 13:02:56;;;;;;;4.55;3.97;;;;;;;;;;5005443;28;20030;-73
2023/07/04 13:05:25;;;;;;;6.60;4.20;;;;;;;;;;5000991;28;20041;-73
2023/07/04 13:07:50;;;;;;;4.68;3.85;;;;;;;;;;5004644;28;20066;-73
2023/07/04 13:10:23;;;;;;;5.03;4.07;;;;;;;;;;5003293;28;20117;-73
2023/07/04 13:12:49;;;;;;;5.05;3.92;;;;;;;;;;5019173;28;20038;-73
2023/07/04 13:15:22;;;;;;;4.10;3.58;;;;;;;;;;5008432;28;20083;-73
2023/07/04 13:18:07;;;;;;;3.50;3.20;;;;;;;;;;5006404;28;20485;-73
2023/07/04 13:20:36;;;;;;;7.28;4.00;;;;;;;;;;5008035;28;20497;-73
2023/07/04 13:23:22;;;;;;;5.97;4.20;;;;;;;;;;4998112;28;20054;-72
2023/07/04 13:25:50;;;;;;;6.95;4.30;;;;;;;;;;5004278;28;20041;-72
2023/07/04 13:28:24;;;;;;;5.83;3.73;;;;;;;;;;5010809;28;20539;-72
2023/07/04 13:30:50;;;;;;;6.15;3.30;;;;;;;;;;4999598;28;20887;-72
2023/07/04 13:33:30;;;;;;;7.47;3.75;;;;;;;;;;5003461;28;20219;-72
2023/07/04 13:36:14;;;;;;;4.35;3.17;;;;;;;;;;4996524;28;20101;-72
2023/07/04 13:38:40;;;;;;;7.00;3.50;;;;;;;;;;5007595;28;20047;-72
2023/07/04 13:41:08;;;;;;;6.47;3.40;;;;;;;;;;5011424;28;20413;-72
2023/07/04 13:43:35;;;;;;;5.03;3.80;;;;;;;;;;5001039;28;20460;-72
2023/07/04 13:46:00;;;;;;;6.57;3.70;;;;;;;;;;4994505;28;20045;-72
2023/07/04 13:48:27;;;;;;;3.63;3.30;;;;;;;;;;4994694;28;20414;-71
2023/07/04 13:50:54;;;;;;;4.55;3.40;;;;;;;;;;5010142;28;20048;-71
2023/07/04 13:53:21;;;;;;;4.45;3.40;;;;;;;;;;5002577;28;20048;-71
2023/07/04 13:55:47;;;;;;;4.28;3.75;;;;;;;;;;5003909;28;20065;-71
2023/07/04 13:58:13;;;;;;;5.38;3.63;;;;;;;;;;5008301;28;20772;-71
2023/07/04 14:00:40;;;;;;;3.85;3.35;;;;;;;;;;5025543;28;20076;-71
2023/07/04 14:03:06;;;;;;;4.30;3.50;;;;;;;;;;5007724;28;20530;-72
2023/07/04 14:05:35;;;;;;;6.32;3.50;;;;;;;;;;5006909;28;20302;-71
2023/07/04 14:08:01;;;;;;;4.32;3.20;;;;;;;;;;5019220;28;20042;-71
2023/07/04 14:10:27;;;;;;;4.40;3.20;;;;;;;;;;5008320;28;20104;-71
2023/07/04 14:12:52;;;;;;;3.50;3.20;;;;;;;;;;5007054;28;20048;-72
2023/07/04 14:15:18;;;;;;;3.00;2.80;;;;;;;;;;5012802;28;20117;-72
2023/07/04 14:17:43;;;;;;;3.90;3.15;;;;;;;;;;5008570;28;20026;-72
2023/07/04 14:20:09;;;;;;;4.63;3.10;;;;;;;;;;5006627;28;20095;-72
2023/07/04 14:22:35;;;;;;;6.72;3.40;;;;;;;;;;5006237;28;20143;-72
2023/07/04 14:25:01;;;;;;;3.92;3.35;;;;;;;;;;5021380;28;20492;-72
2023/07/04 14:27:27;;;;;;;3.88;3.50;;;;;;;;;;5007363;28;20328;-72
2023/07/04 14:29:52;;;;;;;4.07;3.40;;;;;;;;;;5010384;28;20448;-72
2023/07/04 14:32:18;;;;;;;3.67;3.38;;;;;;;;;;5010697;28;20037;-73
2023/07/04 14:34:44;;;;;;;6.60;3.58;;;;;;;;;;5013548;28;20064;-72
2023/07/04 14:37:10;;;;;;;3.97;3.30;;;;;;;;;;4997837;28;20034;-72
2023/07/04 14:39:35;;;;;;;4.00;3.50;;;;;;;;;;5011623;28;20119;-72
2023/07/04 14:42:01;;;;;;;4.85;3.83;;;;;;;;;;5015962;28;20423;-72
2023/07/04 14:44:27;;;;;;;6.45;3.50;;;;;;;;;;5011850;28;20041;-73
2023/07/04 14:46:54;;;;;;;4.03;3.25;;;;;;;;;;5007268;28;20045;-73
2023/07/04 14:49:21;;;;;;;4.15;3.10;;;;;;;;;;5013812;28;20049;-72
2023/07/04 14:51:46;;;;;;;3.65;3.30;;;;;;;;;;5009634;28;20050;-72
2023/07/04 14:54:14;;;;;;;5.13;3.42;;;;;;;;;;5007848;28;20033;-72
2023/07/04 14:56:41;;;;;;;4.05;3.42;;;;;;;;;;5008994;28;20029;-72